createdAt,value
2018-10-15T00:00:35.649Z,14.33
2018-10-15T00:03:04.280Z,14.27
2018-10-15T00:05:32.917Z,14.35
2018-10-15T00:08:01.540Z,14.35
2018-10-15T00:10:30.316Z,14.44
2018-10-15T00:12:58.992Z,14.42
2018-10-15T00:15:28.824Z,14.43
2018-10-15T00:17:57.548Z,14.44
2018-10-15T00:20:26.322Z,14.39
2018-10-15T00:22:55.558Z,14.45
2018-10-15T00:25:24.221Z,14.39
2018-10-15T00:27:52.875Z,14.40
2018-10-15T00:30:21.484Z,14.39
2018-10-15T00:32:50.121Z,14.37
2018-10-15T00:35:18.764Z,14.37
2018-10-15T00:37:47.378Z,14.26
2018-10-15T00:40:16.142Z,14.28
2018-10-15T00:42:44.849Z,14.21
2018-10-15T00:45:14.419Z,14.15
2018-10-15T00:47:43.324Z,14.22
2018-10-15T00:50:13.208Z,14.39
2018-10-15T00:52:42.177Z,14.30
2018-10-15T00:55:11.840Z,14.38
2018-10-15T00:57:40.875Z,14.45
2018-10-15T01:00:11.284Z,14.37
2018-10-15T01:02:39.950Z,14.39
2018-10-15T01:05:09.452Z,14.34
2018-10-15T01:07:38.092Z,14.45
2018-10-15T01:10:07.780Z,14.47
2018-10-15T01:12:36.407Z,14.42
2018-10-15T01:15:06.120Z,14.35
2018-10-15T01:17:34.750Z,14.35
2018-10-15T01:20:03.413Z,14.36
2018-10-15T01:22:32.055Z,14.34
2018-10-15T01:25:00.746Z,14.32
2018-10-15T01:27:29.394Z,14.24
2018-10-15T01:29:58.035Z,14.27
2018-10-15T01:32:26.667Z,14.30
2018-10-15T01:34:55.327Z,14.18
2018-10-15T01:37:23.985Z,14.07
2018-10-15T01:39:52.728Z,14.10
2018-10-15T01:42:21.367Z,14.09
2018-10-15T01:44:49.992Z,14.03
2018-10-15T01:47:18.623Z,13.95
2018-10-15T01:49:47.388Z,13.99
2018-10-15T01:52:15.999Z,13.93
2018-10-15T01:54:44.659Z,13.86
2018-10-15T01:57:13.563Z,13.94
2018-10-15T01:59:42.219Z,13.93
2018-10-15T02:02:10.827Z,13.89
2018-10-15T02:04:39.543Z,13.89
2018-10-15T02:07:08.163Z,13.90
2018-10-15T02:09:36.959Z,13.83
2018-10-15T02:12:05.595Z,13.66
2018-10-15T02:14:34.243Z,13.69
2018-10-15T02:17:02.875Z,13.81
2018-10-15T02:19:31.507Z,13.65
2018-10-15T02:22:00.143Z,13.65
2018-10-15T02:24:29.210Z,13.63
2018-10-15T02:26:57.839Z,13.61
2018-10-15T02:29:26.527Z,13.52
2018-10-15T02:31:55.196Z,13.50
2018-10-15T02:34:23.839Z,13.56
2018-10-15T02:36:52.441Z,13.61
2018-10-15T02:39:21.076Z,13.50
2018-10-15T02:41:49.717Z,13.66
2018-10-15T02:44:18.344Z,13.53
2018-10-15T02:46:46.988Z,13.43
2018-10-15T02:49:15.635Z,13.36
2018-10-15T02:51:44.333Z,13.40
2018-10-15T02:54:12.944Z,13.34
2018-10-15T02:56:41.589Z,13.44
2018-10-15T02:59:10.239Z,13.36
2018-10-15T03:01:38.864Z,13.45
2018-10-15T03:04:07.520Z,13.32
2018-10-15T03:06:36.164Z,13.35
2018-10-15T03:09:07.076Z,13.32
2018-10-15T03:11:35.687Z,13.37
2018-10-15T03:14:04.667Z,13.30
2018-10-15T03:16:33.314Z,13.22
2018-10-15T03:19:01.950Z,13.22
2018-10-15T03:21:30.627Z,13.27
2018-10-15T03:23:59.270Z,13.24
2018-10-15T03:26:27.899Z,13.19
2018-10-15T03:28:56.522Z,13.33
2018-10-15T03:31:25.192Z,13.17
2018-10-15T03:33:53.869Z,13.06
2018-10-15T03:36:22.499Z,13.02
2018-10-15T03:38:51.128Z,13.08
2018-10-15T03:41:19.772Z,12.97
2018-10-15T03:43:48.406Z,13.07
2018-10-15T03:46:17.065Z,12.96
2018-10-15T03:48:45.692Z,12.93
2018-10-15T03:51:14.347Z,12.97
2018-10-15T03:53:42.997Z,12.96
2018-10-15T03:56:11.623Z,12.92
2018-10-15T03:58:40.414Z,12.89
2018-10-15T04:01:09.061Z,12.82
2018-10-15T04:03:37.691Z,12.90
2018-10-15T04:06:06.348Z,12.80
2018-10-15T04:08:35.036Z,12.78
2018-10-15T04:11:03.582Z,12.79
2018-10-15T04:13:32.281Z,12.82
2018-10-15T04:16:00.889Z,12.88
2018-10-15T04:18:30.443Z,12.80
2018-10-15T04:20:59.100Z,12.75
2018-10-15T04:23:27.764Z,12.72
2018-10-15T04:25:56.553Z,12.76
2018-10-15T04:28:25.188Z,12.66
2018-10-15T04:30:53.947Z,12.79
2018-10-15T04:33:22.612Z,12.65
2018-10-15T04:35:51.243Z,12.71
2018-10-15T04:38:19.862Z,12.61
2018-10-15T04:40:48.489Z,12.58
2018-10-15T04:43:17.095Z,12.62
2018-10-15T04:45:45.712Z,12.60
2018-10-15T04:48:14.392Z,12.65
2018-10-15T04:50:43.026Z,12.65
2018-10-15T04:53:11.663Z,12.65
2018-10-15T04:55:40.340Z,12.59
2018-10-15T04:58:09.066Z,12.50
2018-10-15T05:00:37.733Z,12.41
2018-10-15T05:03:06.387Z,12.43
2018-10-15T05:05:34.993Z,12.46
2018-10-15T05:08:03.681Z,12.44
2018-10-15T05:10:32.331Z,12.44
2018-10-15T05:13:00.947Z,12.47
2018-10-15T05:15:29.568Z,12.43
2018-10-15T05:17:58.172Z,12.46
2018-10-15T05:20:26.893Z,12.60
2018-10-15T05:22:55.502Z,12.40
2018-10-15T05:25:24.180Z,12.50
2018-10-15T05:27:53.024Z,12.36
2018-10-15T05:30:21.833Z,12.27
2018-10-15T05:32:50.599Z,12.32
2018-10-15T05:35:19.235Z,12.33
2018-10-15T05:37:47.896Z,12.33
2018-10-15T05:40:16.530Z,12.33
2018-10-15T05:42:45.145Z,12.31
2018-10-15T05:45:14.097Z,12.20
2018-10-15T05:47:42.716Z,12.27
2018-10-15T05:50:12.519Z,12.20
2018-10-15T05:52:41.765Z,12.20
2018-10-15T05:55:11.554Z,12.25
2018-10-15T05:57:40.340Z,12.26
2018-10-15T06:00:11.153Z,12.30
2018-10-15T06:02:39.889Z,12.36
2018-10-15T06:05:09.331Z,12.30
2018-10-15T06:07:37.935Z,12.34
2018-10-15T06:10:08.682Z,12.26
2018-10-15T06:12:37.451Z,12.21
2018-10-15T06:15:07.325Z,12.53
2018-10-15T06:17:36.072Z,12.57
2018-10-15T06:20:05.468Z,12.44
2018-10-15T06:22:34.329Z,12.41
2018-10-15T06:25:03.108Z,12.36
2018-10-15T06:27:31.720Z,12.44
2018-10-15T06:30:00.396Z,12.49
2018-10-15T06:32:29.036Z,12.44
2018-10-15T06:34:57.668Z,12.53
2018-10-15T06:37:26.555Z,12.60
2018-10-15T06:39:55.131Z,12.60
2018-10-15T06:42:23.774Z,12.67
2018-10-15T06:44:52.384Z,12.74
2018-10-15T06:47:21.506Z,12.86
2018-10-15T06:49:50.063Z,12.84
2018-10-15T06:52:18.753Z,12.92
2018-10-15T06:54:47.448Z,12.92
2018-10-15T06:57:16.168Z,13.08
2018-10-15T06:59:44.770Z,13.26
2018-10-15T07:02:13.499Z,13.51
2018-10-15T07:04:42.123Z,13.84
2018-10-15T07:07:10.860Z,13.96
2018-10-15T07:09:39.519Z,14.05
2018-10-15T07:12:08.258Z,14.00
2018-10-15T07:14:36.943Z,13.84
2018-10-15T07:17:05.776Z,13.90
2018-10-15T07:19:34.452Z,14.00
2018-10-15T07:22:03.158Z,13.90
2018-10-15T07:24:31.842Z,13.95
2018-10-15T07:27:00.524Z,13.96
2018-10-15T07:29:29.316Z,14.01
2018-10-15T07:31:58.024Z,14.04
2018-10-15T07:34:26.698Z,14.03
2018-10-15T07:36:55.548Z,14.09
2018-10-15T07:39:24.250Z,14.18
2018-10-15T07:41:52.868Z,14.25
2018-10-15T07:44:21.626Z,14.28
2018-10-15T07:46:50.195Z,14.45
2018-10-15T07:49:18.892Z,14.42
2018-10-15T07:51:47.597Z,14.48
2018-10-15T07:54:16.394Z,14.68
2018-10-15T07:56:45.311Z,14.70
2018-10-15T07:59:14.082Z,14.75
2018-10-15T08:01:42.650Z,14.78
2018-10-15T08:04:11.345Z,14.95
2018-10-15T08:06:39.951Z,15.01
2018-10-15T08:09:08.728Z,15.12
2018-10-15T08:11:37.377Z,15.26
2018-10-15T08:14:06.094Z,15.40
2018-10-15T08:16:34.695Z,15.53
2018-10-15T08:19:03.634Z,15.58
2018-10-15T08:21:32.327Z,15.66
2018-10-15T08:24:01.125Z,15.73
2018-10-15T08:26:29.811Z,15.81
2018-10-15T08:28:58.442Z,15.81
2018-10-15T08:31:27.102Z,15.89
2018-10-15T08:33:55.756Z,16.10
2018-10-15T08:36:24.435Z,16.27
2018-10-15T08:38:53.088Z,16.24
2018-10-15T08:41:21.833Z,16.46
2018-10-15T08:43:50.636Z,16.79
2018-10-15T08:46:19.382Z,17.24
2018-10-15T08:48:48.035Z,17.64
2018-10-15T08:51:16.752Z,18.23
2018-10-15T08:53:45.416Z,18.83
2018-10-15T08:56:14.105Z,19.54
2018-10-15T08:58:42.800Z,20.16
2018-10-15T09:01:11.462Z,20.71
2018-10-15T09:03:40.113Z,20.78
2018-10-15T09:06:08.829Z,21.07
2018-10-15T09:08:37.564Z,21.52
2018-10-15T09:11:06.260Z,22.02
2018-10-15T09:13:34.840Z,21.94
2018-10-15T09:16:03.607Z,21.57
2018-10-15T09:18:32.615Z,21.96
2018-10-15T09:21:01.428Z,21.80
2018-10-15T09:23:30.150Z,21.52
2018-10-15T09:25:59.058Z,21.18
2018-10-15T09:28:28.104Z,21.67
2018-10-15T09:30:56.785Z,21.62
2018-10-15T09:33:25.501Z,21.82
2018-10-15T09:35:54.150Z,22.33
2018-10-15T09:38:22.873Z,22.36
2018-10-15T09:40:51.548Z,22.53
2018-10-15T09:43:20.188Z,22.83
2018-10-15T09:45:49.245Z,22.90
2018-10-15T09:48:17.925Z,22.85
2018-10-15T09:50:46.632Z,23.02
2018-10-15T09:53:15.428Z,22.95
2018-10-15T09:55:44.929Z,22.63
2018-10-15T09:58:13.597Z,22.91
2018-10-15T10:00:47.706Z,23.36
2018-10-15T10:03:16.312Z,23.90
2018-10-15T10:05:44.940Z,23.97
2018-10-15T10:08:13.620Z,24.86
2018-10-15T10:10:42.341Z,25.08
2018-10-15T10:13:10.965Z,24.74
2018-10-15T10:15:39.614Z,25.45
2018-10-15T10:18:08.395Z,25.42
2018-10-15T10:20:36.918Z,25.89
2018-10-15T10:23:05.981Z,26.27
2018-10-15T10:25:34.560Z,26.48
2018-10-15T10:28:03.285Z,26.80
2018-10-15T10:30:32.011Z,26.56
2018-10-15T10:33:00.658Z,26.46
2018-10-15T10:35:44.022Z,26.63
2018-10-15T10:38:14.462Z,26.66
2018-10-15T10:40:43.097Z,26.86
2018-10-15T10:43:11.810Z,26.46
2018-10-15T10:45:41.087Z,26.41
2018-10-15T10:48:09.644Z,26.84
2018-10-15T10:50:38.338Z,26.36
2018-10-15T10:53:07.348Z,26.92
2018-10-15T10:55:36.028Z,26.96
2018-10-15T10:58:05.011Z,27.13
2018-10-15T11:00:33.613Z,27.52
2018-10-15T11:03:02.335Z,27.76
2018-10-15T11:05:31.074Z,27.38
2018-10-15T11:07:59.667Z,26.92
2018-10-15T11:10:28.267Z,27.00
2018-10-15T11:12:56.921Z,27.09
2018-10-15T11:15:25.676Z,27.16
2018-10-15T11:17:54.516Z,27.16
2018-10-15T11:20:23.131Z,26.73
2018-10-15T11:22:51.902Z,26.82
2018-10-15T11:25:20.580Z,26.72
2018-10-15T11:27:49.254Z,26.80
2018-10-15T11:30:18.044Z,26.68
2018-10-15T11:32:46.668Z,26.67
2018-10-15T11:35:15.311Z,27.06
2018-10-15T11:37:44.032Z,27.42
2018-10-15T11:40:12.700Z,27.28
2018-10-15T11:42:41.342Z,27.19
2018-10-15T11:45:10.054Z,27.35
2018-10-15T11:47:38.785Z,27.27
2018-10-15T11:50:07.711Z,27.39
2018-10-15T11:52:36.344Z,27.86
2018-10-15T11:55:05.717Z,28.44
2018-10-15T11:57:34.486Z,28.03
2018-10-15T12:00:03.195Z,28.31
2018-10-15T12:02:31.863Z,28.41
2018-10-15T12:05:00.479Z,28.31
2018-10-15T12:07:30.274Z,28.41
2018-10-15T12:09:58.932Z,28.09
2018-10-15T12:12:27.657Z,28.02
2018-10-15T12:14:56.326Z,27.96
2018-10-15T12:17:24.963Z,28.45
2018-10-15T12:19:53.608Z,28.79
2018-10-15T12:22:22.302Z,28.68
2018-10-15T12:24:50.908Z,28.86
2018-10-15T12:27:19.544Z,28.16
2018-10-15T12:29:48.204Z,28.12
2018-10-15T12:32:16.817Z,28.06
2018-10-15T12:34:45.460Z,27.66
2018-10-15T12:37:14.103Z,26.95
2018-10-15T12:39:42.732Z,26.53
2018-10-15T12:42:11.400Z,26.28
2018-10-15T12:44:40.080Z,25.98
2018-10-15T12:47:08.721Z,26.09
2018-10-15T12:49:37.508Z,25.80
2018-10-15T12:52:06.335Z,25.16
2018-10-15T12:54:35.056Z,25.47
2018-10-15T12:57:03.727Z,25.33
2018-10-15T12:59:32.365Z,25.27
2018-10-15T13:02:01.052Z,25.14
2018-10-15T13:04:29.947Z,24.92
2018-10-15T13:06:58.632Z,24.93
2018-10-15T13:09:27.623Z,24.84
2018-10-15T13:11:56.360Z,24.59
2018-10-15T13:14:24.995Z,24.50
2018-10-15T13:16:53.841Z,24.39
2018-10-15T13:19:22.557Z,24.43
2018-10-15T13:21:51.190Z,24.27
2018-10-15T13:24:19.879Z,24.16
2018-10-15T13:26:48.674Z,24.33
2018-10-15T13:29:17.404Z,24.41
2018-10-15T13:31:46.065Z,24.36
2018-10-15T13:34:14.768Z,24.35
2018-10-15T13:36:43.505Z,24.46
2018-10-15T13:39:12.209Z,24.53
2018-10-15T13:41:40.872Z,24.47
2018-10-15T13:44:09.593Z,24.28
2018-10-15T13:46:38.327Z,24.49
2018-10-15T13:49:07.117Z,24.33
2018-10-15T13:51:35.884Z,24.51
2018-10-15T13:54:04.970Z,24.59
2018-10-15T13:56:33.694Z,24.35
2018-10-15T13:59:02.531Z,24.53
2018-10-15T14:01:31.214Z,24.28
2018-10-15T14:03:59.920Z,24.12
2018-10-15T14:06:28.677Z,23.98
2018-10-15T14:08:57.511Z,23.95
2018-10-15T14:11:26.149Z,23.94
2018-10-15T14:13:54.822Z,23.95
2018-10-15T14:16:23.539Z,23.76
2018-10-15T14:18:52.196Z,23.79
2018-10-15T14:21:20.917Z,23.70
2018-10-15T14:23:49.658Z,23.64
2018-10-15T14:26:18.255Z,23.46
2018-10-15T14:28:46.940Z,23.56
2018-10-15T14:31:15.625Z,23.64
2018-10-15T14:33:44.296Z,23.50
2018-10-15T14:36:12.943Z,23.46
2018-10-15T14:38:41.586Z,23.30
2018-10-15T14:41:10.233Z,23.38
2018-10-15T14:43:39.140Z,23.20
2018-10-15T14:46:07.827Z,23.09
2018-10-15T14:48:36.530Z,23.13
2018-10-15T14:51:05.587Z,23.08
2018-10-15T14:53:34.221Z,23.05
2018-10-15T14:56:02.888Z,23.18
2018-10-15T14:58:31.514Z,23.13
2018-10-15T15:01:00.232Z,23.02
2018-10-15T15:03:28.889Z,22.91
2018-10-15T15:05:59.370Z,22.98
2018-10-15T15:08:28.312Z,22.93
2018-10-15T15:11:08.284Z,22.86
2018-10-15T15:13:48.333Z,22.86
2018-10-15T15:16:20.262Z,22.91
2018-10-15T15:18:50.076Z,22.86
2018-10-15T15:21:19.950Z,22.84
2018-10-15T15:23:51.279Z,22.71
2018-10-15T15:26:20.795Z,22.66
2018-10-15T15:28:49.425Z,22.62
2018-10-15T15:31:18.124Z,22.58
2018-10-15T15:33:47.016Z,22.55
2018-10-15T15:36:16.132Z,22.50
2018-10-15T15:38:44.705Z,22.48
2018-10-15T15:41:13.366Z,22.41
2018-10-15T15:43:42.012Z,22.29
2018-10-15T15:46:10.691Z,22.24
2018-10-15T15:48:39.612Z,22.10
2018-10-15T15:51:08.685Z,21.93
2018-10-15T15:53:37.573Z,21.82
2018-10-15T15:56:06.397Z,21.55
2018-10-15T15:58:35.096Z,21.67
2018-10-15T16:01:04.584Z,21.61
2018-10-15T16:03:33.279Z,21.67
2018-10-15T16:06:02.340Z,21.60
2018-10-15T16:08:31.060Z,21.51
2018-10-15T16:11:00.013Z,21.52
2018-10-15T16:13:28.564Z,21.40
2018-10-15T16:15:57.347Z,21.31
2018-10-15T16:18:26.227Z,21.19
2018-10-15T16:20:54.907Z,21.15
2018-10-15T16:23:23.610Z,21.07
2018-10-15T16:25:52.240Z,21.06
2018-10-15T16:28:20.889Z,20.98
2018-10-15T16:30:50.608Z,20.84
2018-10-15T16:33:19.986Z,20.61
2018-10-15T16:35:48.666Z,20.65
2018-10-15T16:38:17.363Z,20.50
2018-10-15T16:40:46.663Z,20.43
2018-10-15T16:43:16.759Z,20.24
2018-10-15T16:45:45.763Z,20.17
2018-10-15T16:48:14.414Z,20.04
2018-10-15T16:50:43.914Z,20.01
2018-10-15T16:53:12.592Z,19.77
2018-10-15T16:55:41.240Z,19.67
2018-10-15T16:58:09.920Z,19.57
2018-10-15T17:00:39.259Z,19.52
2018-10-15T17:03:08.193Z,19.47
2018-10-15T17:05:36.982Z,19.53
2018-10-15T17:08:05.937Z,19.36
2018-10-15T17:10:34.588Z,19.28
2018-10-15T17:13:03.329Z,19.29
2018-10-15T17:15:31.968Z,19.25
2018-10-15T17:18:00.611Z,19.18
2018-10-15T17:20:29.324Z,19.22
2018-10-15T17:22:58.473Z,19.15
2018-10-15T17:25:27.272Z,19.18
2018-10-15T17:27:56.023Z,19.11
2018-10-15T17:30:24.688Z,19.03
2018-10-15T17:32:53.326Z,18.99
2018-10-15T17:35:22.866Z,18.88
2018-10-15T17:37:51.712Z,18.85
2018-10-15T17:40:20.413Z,18.70
2018-10-15T17:42:49.367Z,18.52
2018-10-15T17:45:18.921Z,18.58
2018-10-15T17:47:49.130Z,18.56
2018-10-15T17:50:17.919Z,18.37
2018-10-15T17:52:46.786Z,18.27
2018-10-15T17:55:15.481Z,18.26
2018-10-15T17:57:44.264Z,18.23
2018-10-15T18:00:16.537Z,18.26
2018-10-15T18:02:45.461Z,18.05
2018-10-15T18:05:14.775Z,18.08
2018-10-15T18:07:43.985Z,18.04
2018-10-15T18:10:12.669Z,17.92
2018-10-15T18:12:41.496Z,18.10
2018-10-15T18:15:10.298Z,18.03
2018-10-15T18:17:39.034Z,18.00
2018-10-15T18:20:08.051Z,18.00
2018-10-15T18:22:37.271Z,17.85
2018-10-15T18:25:06.608Z,17.91
2018-10-15T18:27:35.443Z,17.84
2018-10-15T18:30:04.525Z,17.84
2018-10-15T18:32:33.373Z,17.84
2018-10-15T18:35:02.166Z,17.77
2018-10-15T18:37:31.139Z,17.56
2018-10-15T18:40:00.066Z,17.54
2018-10-15T18:42:28.738Z,17.36
2018-10-15T18:44:57.831Z,17.22
2018-10-15T18:47:26.656Z,17.25
2018-10-15T18:49:55.623Z,17.37
2018-10-15T18:52:24.488Z,17.46
2018-10-15T18:54:53.392Z,17.43
2018-10-15T18:57:22.289Z,17.23
2018-10-15T18:59:50.917Z,17.13
2018-10-15T19:02:19.579Z,17.22
2018-10-15T19:04:48.312Z,17.18
2018-10-15T19:07:17.089Z,17.18
2018-10-15T19:09:45.812Z,17.15
2018-10-15T19:12:14.587Z,17.17
2018-10-15T19:14:43.369Z,17.11
2018-10-15T19:17:12.019Z,17.11
2018-10-15T19:19:40.716Z,17.21
2018-10-15T19:22:09.506Z,17.13
2018-10-15T19:24:38.369Z,17.09
2018-10-15T19:27:07.035Z,16.99
2018-10-15T19:29:36.020Z,17.01
2018-10-15T19:32:04.877Z,16.99
2018-10-15T19:34:33.604Z,16.98
2018-10-15T19:37:02.316Z,17.01
2018-10-15T19:39:31.555Z,16.90
2018-10-15T19:42:00.361Z,16.81
2018-10-15T19:44:29.153Z,16.87
2018-10-15T19:46:57.843Z,16.66
2018-10-15T19:49:26.580Z,16.63
2018-10-15T19:51:55.296Z,16.55
2018-10-15T19:54:23.989Z,16.63
2018-10-15T19:56:52.856Z,16.62
2018-10-15T19:59:21.525Z,16.39
2018-10-15T20:01:50.271Z,16.28
2018-10-15T20:04:19.029Z,16.42
2018-10-15T20:06:47.704Z,16.43
2018-10-15T20:09:16.394Z,16.55
2018-10-15T20:11:45.073Z,16.43
2018-10-15T20:14:13.764Z,16.44
2018-10-15T20:16:42.420Z,16.36
2018-10-15T20:19:11.172Z,16.11
2018-10-15T20:21:39.932Z,16.13
2018-10-15T20:24:08.577Z,16.06
2018-10-15T20:26:37.264Z,16.13
2018-10-15T20:29:06.093Z,16.15
2018-10-15T20:31:34.834Z,16.21
2018-10-15T20:34:03.596Z,16.14
2018-10-15T20:36:32.453Z,16.13
2018-10-15T20:39:01.201Z,16.03
2018-10-15T20:41:29.898Z,15.82
2018-10-15T20:43:58.620Z,15.72
2018-10-15T20:46:27.282Z,15.92
2018-10-15T20:48:56.137Z,15.90
2018-10-15T20:51:24.836Z,16.04
2018-10-15T20:53:53.497Z,15.95
2018-10-15T20:56:22.305Z,15.68
2018-10-15T20:58:50.974Z,15.41
2018-10-15T21:01:19.626Z,15.30
2018-10-15T21:03:48.486Z,15.28
2018-10-15T21:06:17.208Z,15.30
2018-10-15T21:08:45.995Z,15.23
2018-10-15T21:11:15.171Z,15.27
2018-10-15T21:13:43.853Z,15.27
2018-10-15T21:16:12.540Z,15.24
2018-10-15T21:18:41.231Z,15.21
2018-10-15T21:21:09.938Z,15.23
2018-10-15T21:23:38.691Z,15.18
2018-10-15T21:26:07.399Z,15.17
2018-10-15T21:28:36.015Z,15.28
2018-10-15T21:31:04.992Z,15.31
2018-10-15T21:33:33.643Z,15.43
2018-10-15T21:36:02.496Z,15.39
2018-10-15T21:38:31.216Z,15.45
2018-10-15T21:40:59.859Z,15.46
2018-10-15T21:43:28.495Z,15.54
2018-10-15T21:45:57.272Z,15.59
2018-10-15T21:48:26.125Z,15.53
2018-10-15T21:50:54.782Z,15.55
2018-10-15T21:53:23.548Z,15.58
2018-10-15T21:55:52.481Z,15.44
2018-10-15T21:58:21.169Z,15.45
2018-10-15T22:00:50.498Z,15.45
2018-10-15T22:03:19.352Z,15.33
2018-10-15T22:05:48.062Z,15.49
2018-10-15T22:08:16.705Z,15.47
2018-10-15T22:13:13.813Z,15.40
2018-10-15T22:15:42.521Z,15.39
2018-10-15T22:18:12.156Z,15.47
2018-10-15T22:20:42.006Z,15.46
2018-10-15T22:23:10.713Z,15.47
2018-10-15T22:25:39.787Z,15.41
2018-10-15T22:28:08.641Z,15.46
2018-10-15T22:30:37.395Z,15.31
2018-10-15T22:33:06.239Z,15.22
2018-10-15T22:35:34.960Z,14.96
2018-10-15T22:38:03.746Z,14.98
2018-10-15T22:40:32.461Z,14.89
2018-10-15T22:43:01.773Z,14.81
2018-10-15T22:45:30.477Z,14.71
2018-10-15T22:47:59.200Z,14.68
2018-10-15T22:50:27.920Z,14.51
2018-10-15T22:52:56.658Z,14.56
2018-10-15T22:55:25.445Z,14.64
2018-10-15T22:57:54.304Z,14.50
2018-10-15T23:00:23.079Z,14.38
2018-10-15T23:02:52.012Z,14.32
2018-10-15T23:05:20.722Z,14.15
2018-10-15T23:07:49.461Z,13.91
2018-10-15T23:10:23.406Z,14.07
2018-10-15T23:12:52.104Z,13.92
2018-10-15T23:15:21.143Z,13.81
2018-10-15T23:17:49.904Z,13.74
2018-10-15T23:20:18.713Z,13.71
2018-10-15T23:22:47.490Z,13.70
2018-10-15T23:25:16.137Z,13.66
2018-10-15T23:27:44.800Z,13.66
2018-10-15T23:30:13.456Z,13.67
2018-10-15T23:32:42.887Z,13.64
2018-10-15T23:35:11.840Z,13.55
2018-10-15T23:37:41.547Z,13.49
2018-10-15T23:40:11.808Z,13.47
2018-10-15T23:42:40.522Z,13.39
2018-10-15T23:45:10.572Z,13.36
2018-10-15T23:47:39.726Z,13.33
2018-10-15T23:50:10.767Z,13.40
2018-10-15T23:52:39.545Z,13.32
2018-10-15T23:55:09.709Z,13.07
2018-10-15T23:57:38.578Z,13.29
